Time;durP1;ratioP1;P1;durP2;ratioP2;P2;SDS_P1;SDS_P2;PMS_P1;PMS_P2;Temp;Humidity;BMP_temperature;BMP_pressure;BME280_temperature;BME280_humidity;BME280_pressure;Samples;Min_cycle;Max_cycle;Signal;HPM_P1;HPM_P2
2023/12/15 00:01:46;;;;;;;15.05;9.75;;;4.80;99.90;;;;;;7375473;19;20032;-69
2023/12/15 00:04:20;;;;;;;18.38;10.60;;;4.80;99.90;;;;;;7374542;19;20027;-69
2023/12/15 00:06:50;;;;;;;18.08;11.88;;;4.70;99.90;;;;;;7374390;19;20015;-68
2023/12/15 00:09:20;;;;;;;16.33;10.65;;;4.60;99.90;;;;;;7375125;19;20376;-69
2023/12/15 00:11:50;;;;;;;16.67;10.18;;;4.60;99.90;;;;;;7374409;19;20018;-70
2023/12/15 00:14:20;;;;;;;16.88;10.75;;;4.70;99.90;;;;;;7374061;19;20010;-70
2023/12/15 00:16:50;;;;;;;17.08;10.25;;;4.70;99.90;;;;;;7376428;19;20011;-70
2023/12/15 00:19:22;;;;;;;16.60;9.38;;;4.70;99.90;;;;;;7374133;19;20717;-69
2023/12/15 00:21:53;;;;;;;17.90;10.30;;;4.70;99.90;;;;;;7376280;19;20010;-70
2023/12/15 00:24:23;;;;;;;19.52;12.52;;;4.60;99.90;;;;;;7376922;19;20011;-69
2023/12/15 00:26:53;;;;;;;18.63;11.65;;;4.50;99.90;;;;;;7375212;19;20010;-69
2023/12/15 00:29:23;;;;;;;19.60;12.90;;;4.50;99.90;;;;;;7376457;19;20014;-70
2023/12/15 00:31:53;;;;;;;19.98;10.82;;;4.60;99.90;;;;;;7375606;19;20393;-69
2023/12/15 00:34:25;;;;;;;19.40;12.43;;;4.60;99.90;;;;;;7376485;19;20031;-70
2023/12/15 00:36:55;;;;;;;19.65;12.38;;;4.60;99.90;;;;;;7375738;19;20011;-70
2023/12/15 00:39:25;;;;;;;17.60;11.25;;;4.50;99.90;;;;;;7382121;19;20039;-70
2023/12/15 00:41:55;;;;;;;16.58;11.32;;;4.50;99.90;;;;;;7381224;19;20014;-69
2023/12/15 00:44:25;;;;;;;20.95;12.80;;;4.60;99.90;;;;;;7383154;19;20011;-69
2023/12/15 00:46:55;;;;;;;19.52;12.68;;;4.50;99.90;;;;;;7381845;19;20022;-69
2023/12/15 00:49:29;;;;;;;18.58;12.02;;;4.50;99.90;;;;;;7383144;19;20014;-70
2023/12/15 00:51:59;;;;;;;18.02;10.48;;;4.50;99.90;;;;;;7380045;19;20090;-71
2023/12/15 00:54:29;;;;;;;18.40;10.90;;;4.50;99.90;;;;;;7381361;19;20300;-71
2023/12/15 00:56:59;;;;;;;18.42;10.43;;;4.50;99.90;;;;;;7380980;19;20433;-71
2023/12/15 00:59:29;;;;;;;20.67;11.57;;;4.50;99.90;;;;;;7381944;19;20006;-70
2023/12/15 01:01:59;;;;;;;15.80;9.02;;;4.50;99.90;;;;;;7380625;19;20015;-70
2023/12/15 01:04:32;;;;;;;17.25;11.32;;;4.50;99.90;;;;;;7379069;19;20377;-70
2023/12/15 01:07:02;;;;;;;20.00;12.20;;;4.40;99.90;;;;;;7379543;19;20015;-70
2023/12/15 01:09:32;;;;;;;20.50;12.52;;;4.40;99.90;;;;;;7381705;19;20014;-69
2023/12/15 01:12:02;;;;;;;19.77;11.80;;;4.40;99.90;;;;;;7381212;19;20014;-70
2023/12/15 01:14:32;;;;;;;21.23;13.00;;;4.40;99.90;;;;;;7380958;19;20015;-70
2023/12/15 01:17:02;;;;;;;19.40;11.98;;;4.50;99.90;;;;;;7380187;19;20018;-70
2023/12/15 01:19:35;;;;;;;20.23;13.25;;;4.50;99.90;;;;;;7381279;19;20074;-70
2023/12/15 01:22:05;;;;;;;21.80;13.05;;;4.40;99.90;;;;;;7380196;19;20015;-69
2023/12/15 01:24:35;;;;;;;21.25;13.02;;;4.40;99.90;;;;;;7380694;19;20349;-70
2023/12/15 01:27:06;;;;;;;19.13;12.13;;;4.50;99.90;;;;;;7380025;19;20015;-70
2023/12/15 01:29:36;;;;;;;21.23;12.82;;;4.50;99.90;;;;;;7381407;19;20006;-69
2023/12/15 01:32:06;;;;;;;21.23;13.00;;;4.50;99.90;;;;;;7380652;19;20021;-70
2023/12/15 01:34:39;;;;;;;23.75;13.27;;;4.40;99.90;;;;;;7379109;19;20017;-70
2023/12/15 01:37:10;;;;;;;24.25;12.75;;;4.50;99.90;;;;;;7378806;19;20733;-70
2023/12/15 01:39:40;;;;;;;22.77;13.55;;;4.40;99.90;;;;;;7381053;19;20025;-70
2023/12/15 01:42:10;;;;;;;21.45;12.32;;;4.40;99.90;;;;;;7380375;19;20133;-70
2023/12/15 01:44:40;;;;;;;20.63;12.57;;;4.50;99.90;;;;;;7378088;19;20026;-70
2023/12/15 01:47:13;;;;;;;19.52;11.93;;;4.50;99.90;;;;;;7378546;19;20011;-70
2023/12/15 01:49:46;;;;;;;19.13;11.60;;;4.50;99.90;;;;;;7377657;19;20089;-69
2023/12/15 01:52:16;;;;;;;20.55;12.77;;;4.50;99.90;;;;;;7379327;19;20081;-70
2023/12/15 01:54:46;;;;;;;21.27;11.52;;;4.40;99.90;;;;;;7379715;19;20035;-69
2023/12/15 01:57:17;;;;;;;20.05;12.00;;;4.40;99.90;;;;;;7377633;19;20023;-70
2023/12/15 01:59:47;;;;;;;21.38;11.95;;;4.40;99.90;;;;;;7378940;19;20475;-69
2023/12/15 02:02:17;;;;;;;20.60;10.77;;;4.40;99.90;;;;;;7378674;19;20097;-69
2023/12/15 02:04:49;;;;;;;19.13;11.60;;;4.40;99.90;;;;;;7378726;19;20018;-70
2023/12/15 02:07:20;;;;;;;21.92;12.02;;;4.30;99.90;;;;;;7377663;19;20013;-70
2023/12/15 02:09:50;;;;;;;18.10;11.35;;;4.40;99.90;;;;;;7378774;19;20020;-70
2023/12/15 02:12:20;;;;;;;17.52;10.05;;;4.40;99.90;;;;;;7378597;19;20007;-70
2023/12/15 02:14:50;;;;;;;17.30;10.68;;;4.30;99.90;;;;;;7378461;19;20525;-70
2023/12/15 02:17:20;;;;;;;18.52;10.50;;;4.30;99.90;;;;;;7378589;19;20519;-70
2023/12/15 02:19:52;;;;;;;17.63;10.63;;;4.20;99.90;;;;;;7380377;19;20409;-69
2023/12/15 02:22:28;;;;;;;17.60;10.82;;;4.20;99.90;;;;;;7379298;19;20051;-69
2023/12/15 02:24:58;;;;;;;18.85;10.80;;;4.20;99.90;;;;;;7380465;19;20007;-70
2023/12/15 02:27:28;;;;;;;17.33;10.70;;;4.20;99.90;;;;;;7380807;19;20389;-70
2023/12/15 02:29:58;;;;;;;19.33;11.68;;;4.20;99.90;;;;;;7380169;19;20017;-69
2023/12/15 02:32:28;;;;;;;21.15;12.55;;;4.20;99.90;;;;;;7378393;19;20023;-70
2023/12/15 02:34:58;;;;;;;20.75;13.32;;;4.20;99.90;;;;;;7379540;19;20039;-67
2023/12/15 02:37:32;;;;;;;20.42;13.75;;;4.10;99.90;;;;;;7378967;19;20033;-70
2023/12/15 02:40:03;;;;;;;19.60;11.00;;;4.10;99.90;;;;;;7376765;19;20504;-67
2023/12/15 02:42:33;;;;;;;19.00;11.73;;;4.20;99.90;;;;;;7378638;19;20013;-67
2023/12/15 02:45:04;;;;;;;18.27;11.65;;;4.30;99.90;;;;;;7377210;19;20366;-68
2023/12/15 02:47:34;;;;;;;18.85;11.98;;;4.30;99.90;;;;;;7377504;19;20010;-68
2023/12/15 02:50:05;;;;;;;17.30;11.38;;;4.20;99.90;;;;;;7377593;19;20006;-68
2023/12/15 02:52:37;;;;;;;17.08;11.15;;;4.30;99.90;;;;;;7378634;19;20072;-68
2023/12/15 02:55:10;;;;;;;19.52;10.60;;;4.30;99.90;;;;;;7376831;19;20010;-68
2023/12/15 02:57:41;;;;;;;16.27;10.45;;;4.30;99.90;;;;;;7377664;19;20074;-68
2023/12/15 03:00:12;;;;;;;15.50;10.30;;;4.30;99.90;;;;;;7375435;19;20022;-67
2023/12/15 03:02:42;;;;;;;21.10;11.00;;;4.30;99.90;;;;;;7378228;19;20014;-69
2023/12/15 03:05:12;;;;;;;20.30;11.02;;;4.40;99.90;;;;;;7377974;19;20481;-68
2023/12/15 03:07:45;;;;;;;18.75;10.90;;;4.30;99.90;;;;;;7376880;19;20011;-69
2023/12/15 03:10:15;;;;;;;16.40;10.75;;;4.40;99.90;;;;;;7378510;19;20081;-69
2023/12/15 03:12:45;;;;;;;14.90;10.65;;;4.40;99.90;;;;;;7377971;19;20025;-69
2023/12/15 03:15:16;;;;;;;20.15;10.15;;;4.30;99.90;;;;;;7377487;19;20018;-69
2023/12/15 03:17:45;;;;;;;14.88;9.82;;;4.40;99.90;;;;;;7377712;19;20010;-69
2023/12/15 03:20:16;;;;;;;18.42;11.60;;;4.40;99.90;;;;;;7376051;19;20017;-69
2023/12/15 03:22:49;;;;;;;14.23;9.63;;;4.40;99.90;;;;;;7379591;19;20022;-69
2023/12/15 03:25:19;;;;;;;17.65;11.43;;;4.40;99.90;;;;;;7381371;19;20002;-69
2023/12/15 03:27:49;;;;;;;17.98;11.10;;;4.50;99.90;;;;;;7377855;19;20351;-69
2023/12/15 03:30:19;;;;;;;16.80;10.48;;;4.40;99.90;;;;;;7377306;19;20017;-69
2023/12/15 03:32:49;;;;;;;15.70;10.55;;;4.30;99.90;;;;;;7377263;19;20468;-69
2023/12/15 03:35:19;;;;;;;16.98;10.05;;;4.40;99.90;;;;;;7375978;19;20021;-69
2023/12/15 03:37:51;;;;;;;13.90;9.32;;;4.40;99.90;;;;;;7377006;19;20499;-69
2023/12/15 03:40:21;;;;;;;12.70;9.38;;;4.40;99.90;;;;;;7376801;19;20015;-69
2023/12/15 03:42:51;;;;;;;14.55;10.05;;;4.50;99.90;;;;;;7377934;19;20018;-69
2023/12/15 03:45:23;;;;;;;16.05;9.75;;;4.40;99.90;;;;;;7376725;19;20011;-69
2023/12/15 03:47:53;;;;;;;12.00;8.60;;;4.30;99.90;;;;;;7375792;19;20467;-68
2023/12/15 03:50:24;;;;;;;13.30;8.85;;;4.30;99.90;;;;;;7375612;19;20362;-69
2023/12/15 03:52:57;;;;;;;13.60;9.27;;;4.30;99.90;;;;;;7375672;19;20058;-69
2023/12/15 03:55:27;;;;;;;12.57;8.80;;;4.30;99.90;;;;;;7375938;19;20604;-69
2023/12/15 03:57:57;;;;;;;15.45;9.65;;;4.40;99.90;;;;;;7375555;19;20479;-68
2023/12/15 04:00:27;;;;;;;13.55;9.85;;;4.50;99.90;;;;;;7374472;19;20018;-68
2023/12/15 04:02:57;;;;;;;13.75;8.93;;;4.40;99.90;;;;;;7376112;19;20010;-69
2023/12/15 04:05:27;;;;;;;13.77;8.63;;;4.40;99.90;;;;;;7375676;19;20471;-69
2023/12/15 04:08:00;;;;;;;13.77;9.30;;;4.50;99.90;;;;;;7375993;19;20384;-68
2023/12/15 04:10:30;;;;;;;15.10;9.23;;;4.50;99.90;;;;;;7377637;19;20433;-69
2023/12/15 04:12:59;;;;;;;13.88;8.93;;;4.50;99.90;;;;;;7380249;19;20074;-70
2023/12/15 04:15:29;;;;;;;12.45;8.85;;;4.50;99.90;;;;;;7381473;19;20018;-69
2023/12/15 04:18:02;;;;;;;13.18;9.20;;;4.50;99.90;;;;;;7382025;19;20459;-69
2023/12/15 04:20:32;;;;;;;13.73;9.63;;;4.50;99.90;;;;;;7382758;19;20538;-68
2023/12/15 04:23:05;;;;;;;13.05;9.18;;;4.60;99.90;;;;;;7384264;19;20013;-69
2023/12/15 04:25:35;;;;;;;14.48;9.57;;;4.60;99.90;;;;;;7383021;19;20011;-69
2023/12/15 04:28:06;;;;;;;13.45;9.73;;;4.60;99.90;;;;;;7379920;19;20069;-69
2023/12/15 04:30:36;;;;;;;13.43;9.48;;;4.60;99.90;;;;;;7378830;19;20006;-69
2023/12/15 04:33:06;;;;;;;13.95;10.15;;;4.60;99.90;;;;;;7383040;19;20114;-70
2023/12/15 04:35:36;;;;;;;13.85;10.27;;;4.60;99.90;;;;;;7381090;19;20011;-69
2023/12/15 04:38:09;;;;;;;12.38;9.18;;;4.60;99.90;;;;;;7382299;19;20040;-69
2023/12/15 04:40:39;;;;;;;16.85;10.32;;;4.60;95.10;;;;;;7380962;19;20015;-70
2023/12/15 04:43:09;;;;;;;15.38;10.20;;;4.60;95.30;;;;;;7382128;19;20018;-70
2023/12/15 04:45:40;;;;;;;14.20;10.23;;;4.70;97.60;;;;;;7380527;19;20661;-70
2023/12/15 04:48:10;;;;;;;15.73;10.07;;;4.70;97.20;;;;;;7379922;19;20368;-69
2023/12/15 04:50:42;;;;;;;13.45;10.15;;;4.70;97.30;;;;;;7381578;19;20017;-69
2023/12/15 04:53:14;;;;;;;17.20;10.07;;;4.70;94.10;;;;;;7380931;19;20088;-70
2023/12/15 04:55:44;;;;;;;14.13;9.93;;;4.70;92.30;;;;;;7380860;19;20017;-70
2023/12/15 04:58:14;;;;;;;18.52;10.30;;;4.70;93.70;;;;;;7380990;19;20018;-70
2023/12/15 05:00:45;;;;;;;15.15;10.38;;;4.70;94.30;;;;;;7381645;19;20013;-69
2023/12/15 05:03:15;;;;;;;13.27;9.38;;;4.70;95.80;;;;;;7380850;19;20019;-69
2023/12/15 05:05:47;;;;;;;13.52;9.77;;;4.70;93.60;;;;;;7379926;19;20105;-68
2023/12/15 05:08:20;;;;;;;14.73;9.88;;;4.70;94.80;;;;;;7380005;19;20384;-68
2023/12/15 05:10:50;;;;;;;14.75;10.00;;;4.80;95.10;;;;;;7381553;19;20011;-68
2023/12/15 05:13:20;;;;;;;15.25;10.57;;;4.80;92.50;;;;;;7379618;19;20007;-69
2023/12/15 05:15:50;;;;;;;15.02;9.90;;;4.70;85.70;;;;;;7380564;19;20014;-68
2023/12/15 05:18:20;;;;;;;16.23;10.25;;;4.70;77.40;;;;;;7379661;19;20023;-69
2023/12/15 05:20:51;;;;;;;14.73;9.73;;;4.70;83.60;;;;;;7380710;19;20006;-68
2023/12/15 05:23:23;;;;;;;14.73;10.30;;;4.70;86.40;;;;;;7378340;19;20367;-69
2023/12/15 05:25:53;;;;;;;14.50;10.18;;;4.80;82.10;;;;;;7380384;19;20019;-69
2023/12/15 05:28:24;;;;;;;13.82;9.77;;;4.80;84.70;;;;;;7379486;19;20011;-68
2023/12/15 05:30:54;;;;;;;16.08;10.10;;;4.70;80.30;;;;;;7380852;19;20035;-68
2023/12/15 05:33:24;;;;;;;13.75;10.05;;;4.80;80.70;;;;;;7380462;19;20007;-68
2023/12/15 05:35:54;;;;;;;14.50;9.93;;;4.70;69.50;;;;;;7378976;19;20009;-68
2023/12/15 05:38:27;;;;;;;14.70;10.52;;;4.70;72.90;;;;;;7379652;19;20051;-68
2023/12/15 05:40:57;;;;;;;14.38;10.48;;;4.70;79.40;;;;;;7380359;19;20112;-69
2023/12/15 05:43:27;;;;;;;14.75;10.82;;;4.80;80.60;;;;;;7379856;19;20014;-68
2023/12/15 05:45:57;;;;;;;16.42;10.85;;;4.70;74.80;;;;;;7380125;19;20074;-68
2023/12/15 05:48:27;;;;;;;13.38;10.35;;;4.70;75.00;;;;;;7378226;19;20019;-68
2023/12/15 05:50:57;;;;;;;15.43;10.52;;;4.80;74.40;;;;;;7380342;19;20023;-68
2023/12/15 05:53:30;;;;;;;14.07;9.85;;;4.70;65.30;;;;;;7379067;19;20370;-68
2023/12/15 05:56:00;;;;;;;15.48;10.50;;;4.80;66.80;;;;;;7379231;19;20006;-69
2023/12/15 05:58:30;;;;;;;16.67;11.18;;;4.80;70.50;;;;;;7379177;19;20006;-69
2023/12/15 06:01:00;;;;;;;13.52;10.23;;;4.80;66.30;;;;;;7381885;19;20025;-69
2023/12/15 06:03:30;;;;;;;15.27;10.32;;;4.80;61.50;;;;;;7384439;19;20634;-69
2023/12/15 06:06:04;;;;;;;15.85;11.32;;;4.80;62.50;;;;;;7378365;19;20109;-69
2023/12/15 06:08:36;;;;;;;14.82;10.13;;;4.80;60.30;;;;;;7378477;19;20003;-70
2023/12/15 06:11:07;;;;;;;12.07;9.95;;;4.80;59.20;;;;;;7379638;19;20010;-69
2023/12/15 06:13:39;;;;;;;15.88;10.55;;;4.80;54.10;;;;;;7379066;19;20901;-70
2023/12/15 06:16:10;;;;;;;15.02;10.70;;;4.80;44.80;;;;;;7376382;19;20010;-69
2023/12/15 06:18:40;;;;;;;14.43;10.57;;;4.80;42.10;;;;;;7376191;19;20011;-70
2023/12/15 06:21:10;;;;;;;17.13;11.93;;;4.80;45.00;;;;;;7377243;19;20018;-68
2023/12/15 06:23:42;;;;;;;16.38;12.32;;;4.90;43.60;;;;;;7378742;19;20012;-70
2023/12/15 06:26:19;;;;;;;19.98;13.27;;;4.90;46.60;;;;;;7380706;19;20010;-69
2023/12/15 06:28:50;;;;;;;23.95;13.77;;;4.90;48.60;;;;;;7375939;19;20053;-69
2023/12/15 06:31:20;;;;;;;19.35;13.20;;;4.90;54.00;;;;;;7379009;19;20109;-69
2023/12/15 06:33:51;;;;;;;18.40;13.00;;;4.90;58.00;;;;;;7378099;19;20614;-69
2023/12/15 06:36:21;;;;;;;24.38;13.80;;;5.00;62.40;;;;;;7377204;19;20523;-69
2023/12/15 06:38:57;;;;;;;18.73;13.40;;;5.00;62.80;;;;;;7378369;19;20074;-70
2023/12/15 06:41:27;;;;;;;21.92;14.40;;;5.00;60.80;;;;;;7378352;19;20010;-69
2023/12/15 06:43:58;;;;;;;22.30;13.93;;;5.00;63.60;;;;;;7377584;19;20014;-69
2023/12/15 06:46:28;;;;;;;21.98;15.05;;;5.00;69.60;;;;;;7375323;19;20007;-68
2023/12/15 06:49:00;;;;;;;20.23;15.15;;;5.00;70.50;;;;;;7378094;19;20015;-69
2023/12/15 06:51:30;;;;;;;21.60;15.25;;;5.00;74.30;;;;;;7377881;19;20010;-69
2023/12/15 06:54:03;;;;;;;21.85;14.43;;;5.00;73.50;;;;;;7377271;19;20015;-69
2023/12/15 06:56:33;;;;;;;21.55;14.55;;;5.00;73.00;;;;;;7379123;19;20026;-70
2023/12/15 06:59:04;;;;;;;20.45;13.73;;;5.00;75.80;;;;;;7379673;19;20014;-69
2023/12/15 07:01:34;;;;;;;21.02;13.73;;;5.00;77.10;;;;;;7379783;19;20376;-68
2023/12/15 07:04:04;;;;;;;19.52;13.48;;;5.10;76.60;;;;;;7378611;19;20026;-67
2023/12/15 07:06:38;;;;;;;20.02;13.10;;;5.00;68.90;;;;;;7377979;19;20495;-69
2023/12/15 07:09:12;;;;;;;22.60;14.30;;;5.00;65.00;;;;;;7379196;19;20088;-68
2023/12/15 07:11:42;;;;;;;22.65;13.60;;;5.00;63.10;;;;;;7381382;19;20415;-67
2023/12/15 07:14:12;;;;;;;22.20;13.93;;;5.10;59.50;;;;;;7379640;19;20026;-67
2023/12/15 07:16:42;;;;;;;20.23;13.52;;;5.00;49.00;;;;;;7379848;19;20010;-68
2023/12/15 07:19:12;;;;;;;21.98;15.32;;;5.00;61.60;;;;;;7378854;19;20025;-68
2023/12/15 07:21:42;;;;;;;22.65;14.45;;;5.00;68.60;;;;;;7376704;19;20077;-68
2023/12/15 07:24:15;;;;;;;22.50;15.23;;;5.00;73.80;;;;;;7377707;19;20015;-68
2023/12/15 07:26:45;;;;;;;21.73;14.73;;;5.10;81.30;;;;;;7377474;19;20022;-68
2023/12/15 07:29:15;;;;;;;26.70;15.77;;;5.10;81.70;;;;;;7377129;19;20002;-68
2023/12/15 07:31:45;;;;;;;26.42;16.70;;;5.10;80.40;;;;;;7378987;19;20029;-69
2023/12/15 07:34:15;;;;;;;29.33;15.43;;;5.20;82.60;;;;;;7376556;19;20402;-68
2023/12/15 07:36:47;;;;;;;25.85;15.98;;;5.20;77.00;;;;;;7378051;19;20015;-68
2023/12/15 07:39:21;;;;;;;25.02;15.57;;;5.30;76.00;;;;;;7375047;19;20469;-68
2023/12/15 07:41:51;;;;;;;28.17;14.98;;;5.20;69.50;;;;;;7376965;19;20018;-67
2023/12/15 07:44:21;;;;;;;25.55;15.43;;;5.20;67.30;;;;;;7376157;19;20057;-68
2023/12/15 07:46:54;;;;;;;23.98;15.77;;;5.20;70.00;;;;;;7374676;19;20010;-68
2023/12/15 07:49:24;;;;;;;22.40;15.07;;;5.30;72.10;;;;;;7376079;19;20046;-68
2023/12/15 07:51:55;;;;;;;25.90;16.15;;;5.30;67.20;;;;;;7374166;19;20016;-68
2023/12/15 07:54:29;;;;;;;23.45;15.82;;;5.30;74.40;;;;;;7374326;19;20151;-67
2023/12/15 07:57:00;;;;;;;25.40;16.50;;;5.30;69.50;;;;;;7376421;19;20530;-69
2023/12/15 07:59:30;;;;;;;26.38;15.75;;;5.30;76.40;;;;;;7377668;19;20501;-68
2023/12/15 08:02:00;;;;;;;24.90;16.50;;;5.40;82.50;;;;;;7376627;19;20018;-68
2023/12/15 08:04:30;;;;;;;23.80;15.55;;;5.50;81.20;;;;;;7376734;19;20016;-69
2023/12/15 08:07:01;;;;;;;23.17;14.40;;;5.40;79.70;;;;;;7376255;19;20014;-69
2023/12/15 08:09:34;;;;;;;25.27;14.95;;;5.40;80.30;;;;;;7376359;19;20023;-68
2023/12/15 08:12:04;;;;;;;23.35;16.23;;;5.40;80.10;;;;;;7377898;19;20014;-68
2023/12/15 08:14:34;;;;;;;23.55;16.40;;;5.50;84.10;;;;;;7377179;19;20011;-68
2023/12/15 08:17:04;;;;;;;24.98;15.95;;;5.50;84.60;;;;;;7375013;19;20050;-69
2023/12/15 08:19:34;;;;;;;22.95;14.38;;;5.50;78.40;;;;;;7378597;19;20007;-67
2023/12/15 08:22:04;;;;;;;20.33;13.48;;;5.60;75.80;;;;;;7376152;19;20029;-68
2023/12/15 08:24:37;;;;;;;21.77;13.50;;;5.60;64.00;;;;;;7374410;19;20010;-68
2023/12/15 08:27:07;;;;;;;20.95;13.20;;;5.50;40.90;;;;;;7375170;19;20014;-68
2023/12/15 08:29:37;;;;;;;20.75;13.75;;;5.60;46.10;;;;;;7374510;19;20022;-69
2023/12/15 08:32:07;;;;;;;17.58;12.52;;;5.60;37.60;;;;;;7375064;19;20109;-68
2023/12/15 08:34:38;;;;;;;16.70;11.77;;;5.70;31.30;;;;;;7375884;19;20376;-68
2023/12/15 08:37:08;;;;;;;17.08;12.52;;;5.70;27.40;;;;;;7375359;19;20483;-67
2023/12/15 08:39:40;;;;;;;15.38;11.88;;;5.70;24.20;;;;;;7377429;19;20023;-68
2023/12/15 08:42:10;;;;;;;21.45;11.73;;;5.70;20.10;;;;;;7376578;19;20007;-68
2023/12/15 08:44:43;;;;;;;14.75;10.68;;;5.70;18.90;;;;;;7373968;19;20054;-68
2023/12/15 08:47:11;;;;;;;14.57;10.48;;;5.80;16.60;;;;;;7372634;19;20112;-68
2023/12/15 08:49:41;;;;;;;13.45;10.30;;;5.80;13.60;;;;;;7376351;19;20048;-68
2023/12/15 08:52:11;;;;;;;15.13;10.52;;;5.80;8.30;;;;;;7375237;19;20377;-68
2023/12/15 08:54:44;;;;;;;15.95;10.95;;;5.80;1.00;;;;;;7375319;19;20107;-68
2023/12/15 08:57:14;;;;;;;16.23;11.18;;;5.80;1.80;;;;;;7376339;19;20022;-70
2023/12/15 08:59:44;;;;;;;14.63;10.13;;;5.90;1.00;;;;;;7379327;19;20006;-69
2023/12/15 09:02:14;;;;;;;14.60;10.63;;;5.90;1.10;;;;;;7380513;19;20042;-69
2023/12/15 09:04:44;;;;;;;14.95;10.43;;;5.90;3.70;;;;;;7380564;19;20019;-69
2023/12/15 09:07:31;;;;;;;15.10;10.00;;;5.90;1.00;;;;;;7378512;19;20022;-69
2023/12/15 09:10:04;;;;;;;14.45;10.55;;;5.80;1.00;;;;;;7381743;19;20010;-69
2023/12/15 09:12:34;;;;;;;13.13;9.82;;;5.90;1.00;;;;;;7381443;19;20388;-69
2023/12/15 09:15:04;;;;;;;18.50;10.57;;;6.00;1.00;;;;;;7381451;19;20026;-68
2023/12/15 09:17:34;;;;;;;14.73;10.20;;;6.00;1.80;;;;;;7380808;19;20036;-69
2023/12/15 09:20:06;;;;;;;14.13;9.70;;;6.10;1.00;;;;;;7381422;19;20463;-68
2023/12/15 09:22:36;;;;;;;17.75;9.98;;;6.00;1.00;;;;;;7381551;19;20013;-68
2023/12/15 09:25:10;;;;;;;13.50;9.98;;;6.10;1.00;;;;;;7381150;19;20046;-68
2023/12/15 09:27:40;;;;;;;15.38;9.80;;;6.20;1.00;;;;;;7380720;19;20490;-68
2023/12/15 09:30:11;;;;;;;14.05;10.00;;;6.20;1.00;;;;;;7381191;19;20014;-68
2023/12/15 09:32:42;;;;;;;14.52;10.10;;;6.30;1.00;;;;;;7380917;19;20014;-68
2023/12/15 09:35:13;;;;;;;19.00;10.48;;;6.30;1.00;;;;;;7380648;19;20036;-70
2023/12/15 09:37:43;;;;;;;12.48;9.57;;;6.30;1.00;;;;;;7378665;19;20022;-68
2023/12/15 09:40:16;;;;;;;13.32;9.63;;;6.30;1.00;;;;;;7381262;19;20532;-69
2023/12/15 09:42:46;;;;;;;12.88;9.25;;;6.30;1.00;;;;;;7381741;19;20405;-69
2023/12/15 09:45:17;;;;;;;13.63;9.48;;;6.20;1.00;;;;;;7381054;19;20010;-68
2023/12/15 09:47:49;;;;;;;12.10;9.70;;;6.30;1.00;;;;;;7381158;19;20031;-70
2023/12/15 09:50:20;;;;;;;11.95;8.82;;;6.40;1.00;;;;;;7383860;19;20007;-69
2023/12/15 09:52:55;;;;;;;13.43;9.93;;;6.60;1.00;;;;;;7379493;19;20018;-70
2023/12/15 09:55:29;;;;;;;13.50;9.27;;;6.60;1.00;;;;;;7380121;19;20007;-68
2023/12/15 09:58:00;;;;;;;13.87;9.47;;;6.70;1.00;;;;;;7380976;19;20648;-68
2023/12/15 10:00:32;;;;;;;12.15;9.10;;;6.70;1.00;;;;;;7380555;19;20032;-68
2023/12/15 10:03:02;;;;;;;13.57;8.90;;;6.80;1.00;;;;;;7380633;19;20033;-69
2023/12/15 10:05:33;;;;;;;11.20;8.77;;;6.80;1.00;;;;;;7377981;19;20019;-69
2023/12/15 10:08:03;;;;;;;12.73;9.18;;;6.90;1.00;;;;;;7377359;19;20033;-70
2023/12/15 10:10:37;;;;;;;11.70;8.15;;;6.90;1.00;;;;;;7378817;19;20360;-68
2023/12/15 10:13:07;;;;;;;13.32;8.55;;;6.90;1.00;;;;;;7381104;19;20665;-69
2023/12/15 10:15:37;;;;;;;11.60;8.82;;;7.00;1.00;;;;;;7380141;19;20359;-68
2023/12/15 10:18:07;;;;;;;10.98;8.55;;;7.10;1.00;;;;;;7379670;19;20014;-68
2023/12/15 10:20:38;;;;;;;11.88;8.55;;;7.20;1.00;;;;;;7379466;19;20469;-69
2023/12/15 10:23:09;;;;;;;12.00;8.18;;;7.30;1.00;;;;;;7379616;19;20010;-69
2023/12/15 10:25:48;;;;;;;94.38;60.30;;;7.40;1.00;;;;;;7380301;19;20363;-69
2023/12/15 10:28:18;;;;;;;10.30;8.23;;;7.30;1.00;;;;;;7379678;19;20093;-68
2023/12/15 10:30:48;;;;;;;11.93;8.50;;;7.20;1.00;;;;;;7377687;19;20040;-68
2023/12/15 10:33:21;;;;;;;11.65;8.02;;;7.40;1.00;;;;;;7379780;19;20021;-68
2023/12/15 10:35:52;;;;;;;11.95;8.05;;;7.40;1.00;;;;;;7379368;19;20010;-68
2023/12/15 10:38:22;;;;;;;9.80;7.70;;;7.30;1.00;;;;;;7379946;19;20014;-68
2023/12/15 10:40:56;;;;;;;10.85;7.50;;;7.40;1.00;;;;;;7380175;19;20024;-69
2023/12/15 10:43:27;;;;;;;10.20;7.20;;;7.40;1.00;;;;;;7379603;19;20474;-68
2023/12/15 10:45:58;;;;;;;11.80;7.70;;;7.50;1.00;;;;;;7378365;19;20459;-69
2023/12/15 10:48:34;;;;;;;50.25;30.63;;;7.50;1.00;;;;;;7372047;19;20014;-70
2023/12/15 10:51:05;;;;;;;15.10;8.88;;;7.70;1.00;;;;;;7379057;19;20031;-70
2023/12/15 10:53:38;;;;;;;12.35;7.63;;;7.70;1.00;;;;;;7377209;19;20015;-68
2023/12/15 10:56:12;;;;;;;10.75;6.88;;;7.70;1.00;;;;;;7376889;19;20475;-69
2023/12/15 10:58:42;;;;;;;17.15;7.50;;;7.70;1.00;;;;;;7377996;19;20043;-68
2023/12/15 11:01:16;;;;;;;9.60;6.88;;;7.70;1.00;;;;;;7378880;19;20031;-69
2023/12/15 11:03:47;;;;;;;10.60;7.20;;;7.60;1.00;;;;;;7377940;19;20487;-69
2023/12/15 11:06:28;;;;;;;36.90;23.48;;;7.50;1.00;;;;;;7379509;19;20034;-69
2023/12/15 11:09:04;;;;;;;10.88;7.05;;;7.30;1.00;;;;;;7377140;19;20010;-68
2023/12/15 11:11:37;;;;;;;9.10;6.28;;;7.50;1.00;;;;;;7374919;19;20071;-69
2023/12/15 11:14:08;;;;;;;14.25;6.97;;;7.60;1.00;;;;;;7382910;19;20501;-69
2023/12/15 11:16:39;;;;;;;8.07;5.63;;;7.50;1.00;;;;;;7378368;19;20045;-69
2023/12/15 11:19:10;;;;;;;8.82;5.97;;;7.50;1.00;;;;;;7377597;19;20473;-69
2023/12/15 11:21:41;;;;;;;8.88;6.57;;;7.50;1.00;;;;;;7372758;19;20363;-68
2023/12/15 11:24:11;;;;;;;11.23;6.40;;;7.30;1.00;;;;;;7374018;19;20006;-69
2023/12/15 11:26:48;;;;;;;10.15;5.43;;;7.40;1.00;;;;;;7372969;19;20097;-69
2023/12/15 11:29:19;;;;;;;8.05;5.35;;;7.10;1.00;;;;;;7374444;19;20031;-69
2023/12/15 11:31:53;;;;;;;5.70;4.53;;;7.10;1.00;;;;;;7373852;19;20509;-68
2023/12/15 11:34:39;;;;;;;5.63;4.43;;;7.10;1.00;;;;;;7373949;19;20094;-69
2023/12/15 11:37:11;;;;;;;7.78;4.10;;;7.10;1.00;;;;;;7371838;19;20030;-68
2023/12/15 11:39:42;;;;;;;6.65;4.45;;;7.10;1.00;;;;;;7373543;19;20077;-68
2023/12/15 11:42:18;;;;;;;5.85;3.80;;;7.10;1.00;;;;;;7372486;19;20018;-69
2023/12/15 11:44:48;;;;;;;7.30;4.63;;;7.20;1.00;;;;;;7371669;19;20007;-69
2023/12/15 11:47:18;;;;;;;6.85;4.32;;;7.10;1.00;;;;;;7373256;19;20007;-70
2023/12/15 11:49:48;;;;;;;9.73;4.53;;;7.10;1.00;;;;;;7372915;19;20025;-68
2023/12/15 11:52:18;;;;;;;8.32;4.57;;;7.20;1.00;;;;;;7371606;19;20405;-69
2023/12/15 11:54:49;;;;;;;8.40;4.78;;;7.20;1.00;;;;;;7372942;19;20126;-68
2023/12/15 11:57:21;;;;;;;6.68;4.25;;;7.20;1.00;;;;;;7371774;19;20011;-69
2023/12/15 11:59:51;;;;;;;9.93;3.90;;;7.10;1.00;;;;;;7376240;19;20022;-67
2023/12/15 12:02:22;;;;;;;6.57;3.30;;;7.10;1.00;;;;;;7386318;19;20740;-69
2023/12/15 12:04:55;;;;;;;5.55;3.38;;;7.20;1.00;;;;;;7373544;19;20014;-69
2023/12/15 12:07:26;;;;;;;4.53;3.30;;;7.20;1.00;;;;;;7373379;19;20121;-68
2023/12/15 12:09:56;;;;;;;4.22;2.90;;;7.20;1.00;;;;;;7373707;19;20023;-69
2023/12/15 12:12:30;;;;;;;6.38;3.30;;;7.30;1.00;;;;;;7372529;19;20013;-69
2023/12/15 12:15:05;;;;;;;6.53;3.22;;;7.30;1.00;;;;;;7373191;19;20014;-69
2023/12/15 12:17:36;;;;;;;5.00;3.00;;;7.20;1.00;;;;;;7371170;19;20031;-68
2023/12/15 12:20:07;;;;;;;5.78;3.00;;;7.10;1.00;;;;;;7374970;19;20006;-69
2023/12/15 12:22:41;;;;;;;7.85;3.58;;;7.20;1.00;;;;;;7369166;19;20055;-69
2023/12/15 12:25:13;;;;;;;4.07;3.35;;;7.20;1.00;;;;;;7371868;19;20090;-69
2023/12/15 12:27:46;;;;;;;6.38;3.50;;;7.30;1.00;;;;;;7371919;19;20013;-69
2023/12/15 12:30:18;;;;;;;4.97;2.95;;;7.30;1.00;;;;;;7372483;19;20003;-69
2023/12/15 12:32:49;;;;;;;6.55;3.65;;;7.20;1.00;;;;;;7375317;19;20014;-68
2023/12/15 12:35:19;;;;;;;6.35;3.03;;;7.20;1.00;;;;;;7379107;19;20010;-68
2023/12/15 12:37:49;;;;;;;4.50;2.90;;;7.10;1.00;;;;;;7379174;19;20337;-69
2023/12/15 12:40:20;;;;;;;4.30;2.95;;;7.10;1.00;;;;;;7380199;19;20029;-68
2023/12/15 12:42:53;;;;;;;4.75;2.97;;;7.20;1.00;;;;;;7381219;19;20032;-69
2023/12/15 12:45:23;;;;;;;4.55;3.15;;;7.20;1.00;;;;;;7379134;19;20700;-68
2023/12/15 12:47:54;;;;;;;7.13;3.30;;;7.30;1.00;;;;;;7378194;19;20117;-68
2023/12/15 12:50:24;;;;;;;7.80;3.30;;;7.20;1.00;;;;;;7380968;19;20036;-68
2023/12/15 12:52:54;;;;;;;9.50;4.72;;;7.20;1.00;;;;;;7380096;19;20010;-69
2023/12/15 12:55:24;;;;;;;5.80;3.00;;;7.30;1.00;;;;;;7379037;19;20010;-68
2023/12/15 12:58:00;;;;;;;7.43;3.83;;;7.20;1.00;;;;;;7378922;19;20010;-70
2023/12/15 13:00:30;;;;;;;7.65;3.35;;;7.20;1.00;;;;;;7375566;19;20026;-69
2023/12/15 13:03:01;;;;;;;7.00;3.50;;;7.40;1.00;;;;;;7381025;19;20036;-69
2023/12/15 13:05:31;;;;;;;5.53;3.67;;;7.40;1.00;;;;;;7382061;19;20030;-69